Bornholm — C4KF2 — position and weather

sailwx.info

Track history (hours):
 
Tides and Currents Weather Stations Pressure Air Temp Water Temp Dewpoint Dewpoint Depression Visibility Wind Speed Wind Dir Waves Ship Positions

Bornholm

Last reported at 2014-Dec-19 15:16 UTC. Time now 2014-Dec-19 18:13 UTC.
Position N 55°43' E 015°41'.

Length 118 m; draft 4.9 m.

Type: Cargo ship. MMSI: 212521000.

Date/timePositionNaut miles runAvg speedWind from/ knotsBaromVisibWave heightAir tempDewpointWater temp
2014-Dec-19 15:16N 55°43' E 015°41'1014.1
2014-Dec-19 14:33N 55°38' E 015°25'1413.9
2014-Dec-19 13:34N 55°31' E 015°04'1414.3
2014-Dec-19 12:34N 55°24' E 014°42'1414.0
2014-Dec-19 11:33N 55°14' E 014°26'1313.2
2014-Dec-19 10:33N 55°10' E 014°03'1413.9
2014-Dec-19 09:33N 55°11' E 013°39'1513.0
2014-Dec-19 08:25N 55°11' E 013°13'1113.2
2014-Dec-19 07:33N 55°14' E 012°54'1312.7
2014-Dec-19 06:34N 55°21' E 012°35'1312.9
2014-Dec-19 05:33N 55°34' E 012°29'2 2.1
2014-Dec-19 04:33N 55°36' E 012°29'0 0.0
2014-Dec-19 03:33N 55°36' E 012°29'0 0.0
2014-Dec-19 02:33N 55°36' E 012°29'0 0.0
2014-Dec-19 01:33N 55°36' E 012°29'0 0.0
2014-Dec-19 00:33N 55°36' E 012°29'0 0.0
2014-Dec-18 23:33N 55°36' E 012°29'0 0.0
2014-Dec-18 22:33N 55°36' E 012°29'0 0.0
2014-Dec-18 21:33N 55°36' E 012°29'0 0.0
2014-Dec-18 20:33N 55°36' E 012°29'0 0.0
2014-Dec-18 19:33N 55°36' E 012°29'0 0.0
2014-Dec-18 18:33N 55°36' E 012°29'0 0.0
2014-Dec-18 17:33N 55°36' E 012°29'0 0.0
2014-Dec-18 16:33N 55°36' E 012°29'0 0.0
2014-Dec-18 15:33N 55°36' E 012°29'0 0.0
2014-Dec-18 14:33N 55°36' E 012°29'0 0.0
2014-Dec-18 13:33N 55°36' E 012°29'0 0.0
2014-Dec-18 12:33N 55°36' E 012°29'0 0.0
2014-Dec-18 11:33N 55°36' E 012°29'0 0.0
2014-Dec-18 10:33N 55°36' E 012°29'0 0.0
2014-Dec-18 09:33N 55°36' E 012°29'0 0.0
2014-Dec-18 08:33N 55°36' E 012°29'0 0.0
2014-Dec-18 07:33N 55°36' E 012°29'0 0.0
2014-Dec-18 06:33N 55°36' E 012°29'0 0.0
2014-Dec-18 05:33N 55°36' E 012°29'0 0.0
2014-Dec-18 04:33N 55°36' E 012°29'0 0.0
2014-Dec-18 03:33N 55°36' E 012°29'1 0.9
2014-Dec-18 02:33N 55°35' E 012°29'3 3.5
2014-Dec-18 01:33N 55°32' E 012°30'3 2.7
2014-Dec-18 00:34N 55°30' E 012°34'2 2.0
2014-Dec-17 23:33N 55°31' E 012°37'0 0.0
2014-Dec-17 22:33N 55°31' E 012°37'0 0.1
2014-Dec-17 21:33N 55°30' E 012°37'0 0.0
2014-Dec-17 20:33N 55°30' E 012°37'0 0.0
2014-Dec-17 19:33N 55°30' E 012°37'0 0.0
2014-Dec-17 18:33N 55°30' E 012°37'0 0.0
2014-Dec-17 17:33N 55°30' E 012°37'0 0.0
2014-Dec-17 16:33N 55°30' E 012°37'0 0.0
2014-Dec-17 15:33N 55°30' E 012°37'0 0.0
2014-Dec-17 14:33N 55°30' E 012°37'0 0.0
2014-Dec-17 13:33N 55°30' E 012°37'0 0.0
2014-Dec-17 12:33N 55°30' E 012°37'0 0.0
2014-Dec-17 11:33N 55°30' E 012°37'0 0.0
2014-Dec-17 10:33N 55°30' E 012°37'0 0.0
2014-Dec-17 09:33N 55°30' E 012°37'0 0.0
2014-Dec-17 08:33N 55°30' E 012°37'0 0.0
2014-Dec-17 07:33N 55°30' E 012°37'0 0.1
2014-Dec-17 06:33N 55°30' E 012°37'0 0.1
2014-Dec-17 05:33N 55°31' E 012°37'6 5.8
2014-Dec-17 04:34N 55°25' E 012°41'9 9.1
2014-Dec-17 03:34N 55°17' E 012°47'1111.3
2014-Dec-17 02:34N 55°14' E 013°07'1110.9
2014-Dec-17 01:33N 55°14' E 013°26'1111.0
2014-Dec-17 00:33N 55°14' E 013°45'1110.8
2014-Dec-16 23:33N 55°14' E 014°04'1010.4
2014-Dec-16 22:33N 55°17' E 014°21'1211.8
2014-Dec-16 21:33N 55°26' E 014°35'1211.7
2014-Dec-16 20:33N 55°32' E 014°53'1212.1
2014-Dec-16 19:33N 55°38' E 015°12'380 9.8
2014-Dec-15 04:33N 59°30' E 024°33'4 3.7
2014-Dec-15 03:34N 59°28' E 024°39'0 0.0
2014-Dec-15 02:32N 59°28' E 024°39'0 0.0
2014-Dec-15 01:26N 59°28' E 024°39'0 0.0
2014-Dec-15 00:32N 59°28' E 024°39'0 0.0
2014-Dec-14 23:32N 59°28' E 024°39'0 0.0
2014-Dec-14 22:32N 59°28' E 024°39'0 0.0
2014-Dec-14 21:26N 59°28' E 024°39'0 0.0
2014-Dec-14 20:29N 59°28' E 024°39'0 0.0
2014-Dec-14 19:29N 59°28' E 024°39'0 0.0
2014-Dec-14 18:32N 59°28' E 024°39'0 0.0
2014-Dec-14 17:23N 59°28' E 024°39'0 0.0
2014-Dec-14 16:32N 59°28' E 024°39'0 0.0
2014-Dec-14 15:32N 59°28' E 024°39'0 0.0
2014-Dec-14 14:26N 59°28' E 024°39'0 0.0
2014-Dec-14 13:32N 59°28' E 024°39'0 0.0
2014-Dec-14 12:32N 59°28' E 024°39'0 0.0
2014-Dec-14 11:32N 59°28' E 024°39'0 0.0
2014-Dec-14 10:32N 59°28' E 024°39'0 0.0
2014-Dec-14 09:32N 59°28' E 024°39'0 0.0
2014-Dec-14 08:32N 59°28' E 024°39'0 0.0
2014-Dec-14 07:29N 59°28' E 024°39'0 0.0
2014-Dec-14 06:32N 59°28' E 024°39'0 0.0
2014-Dec-14 05:32N 59°28' E 024°39'0 0.0
2014-Dec-14 04:32N 59°28' E 024°39'0 0.0
2014-Dec-14 03:32N 59°28' E 024°39'0 0.0
2014-Dec-14 02:32N 59°28' E 024°39'0 0.0
2014-Dec-14 01:32N 59°28' E 024°39'0 0.0
2014-Dec-14 00:32N 59°28' E 024°39'0 0.0
2014-Dec-13 23:32N 59°28' E 024°39'0 0.0
2014-Dec-13 22:32N 59°28' E 024°39'0 0.0
2014-Dec-13 21:32N 59°28' E 024°39'0 0.0
2014-Dec-13 20:29N 59°28' E 024°39'0 0.0
2014-Dec-13 19:20N 59°28' E 024°39'0 0.0
2014-Dec-13 18:29N 59°28' E 024°39'0 0.0
2014-Dec-13 17:32N 59°28' E 024°39'0 0.0
2014-Dec-13 16:32N 59°28' E 024°39'0 0.0
2014-Dec-13 15:32N 59°28' E 024°39'0 0.0
2014-Dec-13 14:32N 59°28' E 024°39'0 0.0
2014-Dec-13 13:32N 59°28' E 024°39'0 0.0
2014-Dec-13 12:32N 59°28' E 024°39'0 0.0
2014-Dec-13 11:29N 59°28' E 024°39'0 0.0
2014-Dec-13 10:32N 59°28' E 024°39'0 0.0
2014-Dec-13 09:32N 59°28' E 024°39'0 0.0
2014-Dec-13 08:26N 59°28' E 024°39'0 0.0
2014-Dec-13 07:14N 59°28' E 024°39'0 0.0
2014-Dec-13 06:32N 59°28' E 024°39'0 0.0
2014-Dec-13 05:29N 59°28' E 024°39'0 0.0
2014-Dec-13 04:32N 59°28' E 024°39'0 0.0
2014-Dec-13 03:32N 59°28' E 024°39'0 0.0
2014-Dec-13 02:32N 59°28' E 024°39'0 0.0
2014-Dec-13 01:32N 59°28' E 024°39'0 0.0
2014-Dec-12 13:03N 59°28' E 024°39'2 5.0
2014-Dec-12 12:33N 59°29' E 024°35'36812.6
2014-Dec-11 07:24N 55°42' E 015°35'1113.1
2014-Dec-11 06:33N 55°36' E 015°17'1313.3
2014-Dec-11 05:34N 55°30' E 014°57'1413.5
2014-Dec-11 04:34N 55°22' E 014°37'1312.9
2014-Dec-11 03:33N 55°12' E 014°23'1312.9
2014-Dec-11 02:33N 55°02' E 014°09'1312.9
2014-Dec-11 01:33N 54°57' E 013°48'5413.4
2014-Dec-10 21:33N 54°34' E 012°24'1313.3
2014-Dec-10 20:33N 54°25' E 012°08'5513.7
2014-Dec-10 16:33N 54°33' E 010°34'1312.7
2014-Dec-10 15:33N 54°27' E 010°15'6 6.4
2014-Dec-10 14:34N 54°22' E 010°09'4 4.2
2014-Dec-10 13:34N 54°22' E 010°01'3 2.6
2014-Dec-10 12:34N 54°20' E 009°57'7 6.7
2014-Dec-10 11:33N 54°21' E 009°46'8 7.9
2014-Dec-10 10:32N 54°15' E 009°37'4 4.0
2014-Dec-10 09:33N 54°12' E 009°33'8 7.8
2014-Dec-10 08:34N 54°08' E 009°21'10 8.3
2014-Dec-10 07:19N 53°58' E 009°16'6 8.3
2014-Dec-10 06:34N 53°54' E 009°09'1 1.3
2014-Dec-10 05:33N 53°53' E 009°07'1 0.7
2014-Dec-10 04:34N 53°53' E 009°06'1111.0
2014-Dec-10 03:33N 53°50' E 008°48'1312.5
2014-Dec-10 02:33N 53°58' E 008°31'1312.7
2014-Dec-10 01:33N 53°59' E 008°09'1313.1
2014-Dec-10 00:33N 53°56' E 007°48'2913.6
2014-Dec-09 22:25N 53°50' E 006°60'2614.1
2014-Dec-09 20:33N 53°43' E 006°17'1413.9
2014-Dec-09 19:34N 53°39' E 005°54'1414.2
2014-Dec-09 18:34N 53°35' E 005°32'1414.3
2014-Dec-09 17:34N 53°30' E 005°09'1414.0
2014-Dec-09 16:33N 53°24' E 004°47'1312.9
2014-Dec-09 15:33N 53°14' E 004°35'  
Track history (hours):
 
Tides and Currents Weather Stations Pressure Air Temp Water Temp Dewpoint Dewpoint Depression Visibility Wind Speed Wind Dir Waves Ship Positions

Bornholm

Last reported at 2014-Dec-19 15:16 UTC. Time now 2014-Dec-19 18:13 UTC.
Position N 55°43' E 015°41'.

Length 118 m; draft 4.9 m.

Type: Cargo ship. MMSI: 212521000.

Date/timePositionNaut miles runAvg speedWind from/ knotsBaromVisibWave heightAir tempDewpointWater temp
2014-Dec-19 15:16N 55°43' E 015°41'1014.1
2014-Dec-19 14:33N 55°38' E 015°25'1413.9
2014-Dec-19 13:34N 55°31' E 015°04'1414.3
2014-Dec-19 12:34N 55°24' E 014°42'1414.0
2014-Dec-19 11:33N 55°14' E 014°26'1313.2
2014-Dec-19 10:33N 55°10' E 014°03'1413.9
2014-Dec-19 09:33N 55°11' E 013°39'1513.0
2014-Dec-19 08:25N 55°11' E 013°13'1113.2
2014-Dec-19 07:33N 55°14' E 012°54'1312.7
2014-Dec-19 06:34N 55°21' E 012°35'1312.9
2014-Dec-19 05:33N 55°34' E 012°29'2 2.1
2014-Dec-19 04:33N 55°36' E 012°29'0 0.0
2014-Dec-19 03:33N 55°36' E 012°29'0 0.0
2014-Dec-19 02:33N 55°36' E 012°29'0 0.0
2014-Dec-19 01:33N 55°36' E 012°29'0 0.0
2014-Dec-19 00:33N 55°36' E 012°29'0 0.0
2014-Dec-18 23:33N 55°36' E 012°29'0 0.0
2014-Dec-18 22:33N 55°36' E 012°29'0 0.0
2014-Dec-18 21:33N 55°36' E 012°29'0 0.0
2014-Dec-18 20:33N 55°36' E 012°29'0 0.0
2014-Dec-18 19:33N 55°36' E 012°29'0 0.0
2014-Dec-18 18:33N 55°36' E 012°29'0 0.0
2014-Dec-18 17:33N 55°36' E 012°29'0 0.0
2014-Dec-18 16:33N 55°36' E 012°29'0 0.0
2014-Dec-18 15:33N 55°36' E 012°29'0 0.0
2014-Dec-18 14:33N 55°36' E 012°29'0 0.0
2014-Dec-18 13:33N 55°36' E 012°29'0 0.0
2014-Dec-18 12:33N 55°36' E 012°29'0 0.0
2014-Dec-18 11:33N 55°36' E 012°29'0 0.0
2014-Dec-18 10:33N 55°36' E 012°29'0 0.0
2014-Dec-18 09:33N 55°36' E 012°29'0 0.0
2014-Dec-18 08:33N 55°36' E 012°29'0 0.0
2014-Dec-18 07:33N 55°36' E 012°29'0 0.0
2014-Dec-18 06:33N 55°36' E 012°29'0 0.0
2014-Dec-18 05:33N 55°36' E 012°29'0 0.0
2014-Dec-18 04:33N 55°36' E 012°29'0 0.0
2014-Dec-18 03:33N 55°36' E 012°29'1 0.9
2014-Dec-18 02:33N 55°35' E 012°29'3 3.5
2014-Dec-18 01:33N 55°32' E 012°30'3 2.7
2014-Dec-18 00:34N 55°30' E 012°34'2 2.0
2014-Dec-17 23:33N 55°31' E 012°37'0 0.0
2014-Dec-17 22:33N 55°31' E 012°37'0 0.1
2014-Dec-17 21:33N 55°30' E 012°37'0 0.0
2014-Dec-17 20:33N 55°30' E 012°37'0 0.0
2014-Dec-17 19:33N 55°30' E 012°37'0 0.0
2014-Dec-17 18:33N 55°30' E 012°37'0 0.0
2014-Dec-17 17:33N 55°30' E 012°37'0 0.0
2014-Dec-17 16:33N 55°30' E 012°37'0 0.0
2014-Dec-17 15:33N 55°30' E 012°37'0 0.0
2014-Dec-17 14:33N 55°30' E 012°37'0 0.0
2014-Dec-17 13:33N 55°30' E 012°37'0 0.0
2014-Dec-17 12:33N 55°30' E 012°37'0 0.0
2014-Dec-17 11:33N 55°30' E 012°37'0 0.0
2014-Dec-17 10:33N 55°30' E 012°37'0 0.0
2014-Dec-17 09:33N 55°30' E 012°37'0 0.0
2014-Dec-17 08:33N 55°30' E 012°37'0 0.0
2014-Dec-17 07:33N 55°30' E 012°37'0 0.1
2014-Dec-17 06:33N 55°30' E 012°37'0 0.1
2014-Dec-17 05:33N 55°31' E 012°37'6 5.8
2014-Dec-17 04:34N 55°25' E 012°41'9 9.1
2014-Dec-17 03:34N 55°17' E 012°47'1111.3
2014-Dec-17 02:34N 55°14' E 013°07'1110.9
2014-Dec-17 01:33N 55°14' E 013°26'1111.0
2014-Dec-17 00:33N 55°14' E 013°45'1110.8
2014-Dec-16 23:33N 55°14' E 014°04'1010.4
2014-Dec-16 22:33N 55°17' E 014°21'1211.8
2014-Dec-16 21:33N 55°26' E 014°35'1211.7
2014-Dec-16 20:33N 55°32' E 014°53'1212.1
2014-Dec-16 19:33N 55°38' E 015°12'380 9.8
2014-Dec-15 04:33N 59°30' E 024°33'4 3.7
2014-Dec-15 03:34N 59°28' E 024°39'0 0.0
2014-Dec-15 02:32N 59°28' E 024°39'0 0.0
2014-Dec-15 01:26N 59°28' E 024°39'0 0.0
2014-Dec-15 00:32N 59°28' E 024°39'0 0.0
2014-Dec-14 23:32N 59°28' E 024°39'0 0.0
2014-Dec-14 22:32N 59°28' E 024°39'0 0.0
2014-Dec-14 21:26N 59°28' E 024°39'0 0.0
2014-Dec-14 20:29N 59°28' E 024°39'0 0.0
2014-Dec-14 19:29N 59°28' E 024°39'0 0.0
2014-Dec-14 18:32N 59°28' E 024°39'0 0.0
2014-Dec-14 17:23N 59°28' E 024°39'0 0.0
2014-Dec-14 16:32N 59°28' E 024°39'0 0.0
2014-Dec-14 15:32N 59°28' E 024°39'0 0.0
2014-Dec-14 14:26N 59°28' E 024°39'0 0.0
2014-Dec-14 13:32N 59°28' E 024°39'0 0.0
2014-Dec-14 12:32N 59°28' E 024°39'0 0.0
2014-Dec-14 11:32N 59°28' E 024°39'0 0.0
2014-Dec-14 10:32N 59°28' E 024°39'0 0.0
2014-Dec-14 09:32N 59°28' E 024°39'0 0.0
2014-Dec-14 08:32N 59°28' E 024°39'0 0.0
2014-Dec-14 07:29N 59°28' E 024°39'0 0.0
2014-Dec-14 06:32N 59°28' E 024°39'0 0.0
2014-Dec-14 05:32N 59°28' E 024°39'0 0.0
2014-Dec-14 04:32N 59°28' E 024°39'0 0.0
2014-Dec-14 03:32N 59°28' E 024°39'0 0.0
2014-Dec-14 02:32N 59°28' E 024°39'0 0.0
2014-Dec-14 01:32N 59°28' E 024°39'0 0.0
2014-Dec-14 00:32N 59°28' E 024°39'0 0.0
2014-Dec-13 23:32N 59°28' E 024°39'0 0.0
2014-Dec-13 22:32N 59°28' E 024°39'0 0.0
2014-Dec-13 21:32N 59°28' E 024°39'0 0.0
2014-Dec-13 20:29N 59°28' E 024°39'0 0.0
2014-Dec-13 19:20N 59°28' E 024°39'0 0.0
2014-Dec-13 18:29N 59°28' E 024°39'0 0.0
2014-Dec-13 17:32N 59°28' E 024°39'0 0.0
2014-Dec-13 16:32N 59°28' E 024°39'0 0.0
2014-Dec-13 15:32N 59°28' E 024°39'0 0.0
2014-Dec-13 14:32N 59°28' E 024°39'0 0.0
2014-Dec-13 13:32N 59°28' E 024°39'0 0.0
2014-Dec-13 12:32N 59°28' E 024°39'0 0.0
2014-Dec-13 11:29N 59°28' E 024°39'0 0.0
2014-Dec-13 10:32N 59°28' E 024°39'0 0.0
2014-Dec-13 09:32N 59°28' E 024°39'0 0.0
2014-Dec-13 08:26N 59°28' E 024°39'0 0.0
2014-Dec-13 07:14N 59°28' E 024°39'0 0.0
2014-Dec-13 06:32N 59°28' E 024°39'0 0.0
2014-Dec-13 05:29N 59°28' E 024°39'0 0.0
2014-Dec-13 04:32N 59°28' E 024°39'0 0.0
2014-Dec-13 03:32N 59°28' E 024°39'0 0.0
2014-Dec-13 02:32N 59°28' E 024°39'0 0.0
2014-Dec-13 01:32N 59°28' E 024°39'0 0.0
2014-Dec-12 13:03N 59°28' E 024°39'2 5.0
2014-Dec-12 12:33N 59°29' E 024°35'36812.6
2014-Dec-11 07:24N 55°42' E 015°35'1113.1
2014-Dec-11 06:33N 55°36' E 015°17'1313.3
2014-Dec-11 05:34N 55°30' E 014°57'1413.5
2014-Dec-11 04:34N 55°22' E 014°37'1312.9
2014-Dec-11 03:33N 55°12' E 014°23'1312.9
2014-Dec-11 02:33N 55°02' E 014°09'1312.9
2014-Dec-11 01:33N 54°57' E 013°48'5413.4
2014-Dec-10 21:33N 54°34' E 012°24'1313.3
2014-Dec-10 20:33N 54°25' E 012°08'5513.7
2014-Dec-10 16:33N 54°33' E 010°34'1312.7
2014-Dec-10 15:33N 54°27' E 010°15'6 6.4
2014-Dec-10 14:34N 54°22' E 010°09'4 4.2
2014-Dec-10 13:34N 54°22' E 010°01'3 2.6
2014-Dec-10 12:34N 54°20' E 009°57'7 6.7
2014-Dec-10 11:33N 54°21' E 009°46'8 7.9
2014-Dec-10 10:32N 54°15' E 009°37'4 4.0
2014-Dec-10 09:33N 54°12' E 009°33'8 7.8
2014-Dec-10 08:34N 54°08' E 009°21'10 8.3
2014-Dec-10 07:19N 53°58' E 009°16'6 8.3
2014-Dec-10 06:34N 53°54' E 009°09'1 1.3
2014-Dec-10 05:33N 53°53' E 009°07'1 0.7
2014-Dec-10 04:34N 53°53' E 009°06'1111.0
2014-Dec-10 03:33N 53°50' E 008°48'1312.5
2014-Dec-10 02:33N 53°58' E 008°31'1312.7
2014-Dec-10 01:33N 53°59' E 008°09'1313.1
2014-Dec-10 00:33N 53°56' E 007°48'2913.6
2014-Dec-09 22:25N 53°50' E 006°60'2614.1
2014-Dec-09 20:33N 53°43' E 006°17'1413.9
2014-Dec-09 19:34N 53°39' E 005°54'1414.2
2014-Dec-09 18:34N 53°35' E 005°32'1414.3
2014-Dec-09 17:34N 53°30' E 005°09'1414.0
2014-Dec-09 16:33N 53°24' E 004°47'1312.9
2014-Dec-09 15:33N 53°14' E 004°35'  

Dump ship's entire track history